createdAt,value
2023-03-26T00:00:26.620Z,100596.69
2023-03-26T00:05:29.618Z,100587.28
2023-03-26T00:10:34.016Z,100599.31
2023-03-26T00:15:38.243Z,100601.97
2023-03-26T00:20:41.507Z,100600.25
2023-03-26T00:25:45.704Z,100597.53
2023-03-26T00:30:48.838Z,100599.09
2023-03-26T00:35:54.118Z,100590.50
2023-03-26T00:41:05.895Z,100574.94
2023-03-26T00:46:09.010Z,100569.75
2023-03-26T00:51:12.706Z,100571.44
2023-03-26T00:56:16.977Z,100555.75
2023-03-26T01:01:27.449Z,100547.25
2023-03-26T01:06:32.850Z,100537.81
2023-03-26T01:11:36.988Z,100535.34
2023-03-26T01:16:46.045Z,100537.97
2023-03-26T01:21:49.222Z,100540.56
2023-03-26T01:27:19.139Z,100536.13
2023-03-26T01:32:33.185Z,100536.09
2023-03-26T01:37:42.624Z,100527.53
2023-03-26T01:42:51.633Z,100519.81
2023-03-26T01:47:56.114Z,100511.25
2023-03-26T01:52:58.940Z,100499.13
2023-03-26T01:58:09.754Z,100486.81
2023-03-26T02:03:18.782Z,100476.53
2023-03-26T02:08:24.764Z,100476.00
2023-03-26T02:13:29.057Z,100466.63
2023-03-26T02:18:37.085Z,100468.59
2023-03-26T02:23:42.084Z,100450.72
2023-03-26T02:28:46.478Z,100450.09
2023-03-26T02:33:50.363Z,100447.63
2023-03-26T02:38:53.427Z,100441.03
2023-03-26T02:43:58.128Z,100432.56
2023-03-26T02:49:17.526Z,100425.59
2023-03-26T02:54:21.540Z,100418.66
2023-03-26T02:59:33.776Z,100411.75
2023-03-26T03:05:02.721Z,100405.75
2023-03-26T03:10:10.085Z,100404.03
2023-03-26T03:15:38.663Z,100407.47
2023-03-26T03:20:41.624Z,100394.44
2023-03-26T03:25:44.827Z,100400.91
2023-03-26T03:30:49.134Z,100390.09
2023-03-26T03:35:59.375Z,100391.31
2023-03-26T03:41:03.503Z,100406.13
2023-03-26T03:46:09.804Z,100405.25
2023-03-26T03:51:18.305Z,100392.13
2023-03-26T03:56:49.008Z,100404.97
2023-03-26T04:02:02.841Z,100396.19
2023-03-26T04:07:16.446Z,100397.84
2023-03-26T04:12:51.580Z,100391.63
2023-03-26T04:17:58.963Z,100381.06
2023-03-26T04:23:02.077Z,100379.50
2023-03-26T04:28:07.517Z,100366.69
2023-03-26T04:33:35.105Z,100365.88
2023-03-26T04:38:42.112Z,100370.84
2023-03-26T04:43:50.490Z,100366.34
2023-03-26T04:49:11.705Z,100357.47
2023-03-26T04:54:16.598Z,100357.28
2023-03-26T04:59:34.641Z,100349.28
2023-03-26T05:04:43.901Z,100356.94
2023-03-26T05:09:47.059Z,100348.22
2023-03-26T05:14:51.706Z,100333.44
2023-03-26T05:20:24.113Z,100315.97
2023-03-26T05:25:27.919Z,100302.94
2023-03-26T05:30:32.261Z,100300.22
2023-03-26T05:35:38.377Z,100301.16
2023-03-26T05:40:44.767Z,100289.06
2023-03-26T05:45:53.077Z,100293.44
2023-03-26T05:51:05.458Z,100298.25
2023-03-26T05:56:09.996Z,100289.09
2023-03-26T06:01:18.545Z,100289.53
2023-03-26T06:06:48.876Z,100286.84
2023-03-26T06:11:52.484Z,100289.53
2023-03-26T06:16:55.378Z,100278.13
2023-03-26T06:21:59.699Z,100276.31
2023-03-26T06:27:10.661Z,100264.84
2023-03-26T06:32:49.761Z,100270.31
2023-03-26T06:37:59.748Z,100264.38
2023-03-26T06:43:07.934Z,100258.66
2023-03-26T06:48:32.084Z,100255.84
2023-03-26T06:54:04.171Z,100255.38
2023-03-26T06:59:19.503Z,100262.19
2023-03-26T07:04:45.482Z,100260.56
2023-03-26T07:10:09.502Z,100260.31
2023-03-26T07:15:30.757Z,100257.38
2023-03-26T07:20:51.207Z,100249.66
2023-03-26T07:25:58.295Z,100261.81
2023-03-26T07:31:19.561Z,100265.72
2023-03-26T07:36:33.614Z,100256.34
2023-03-26T07:41:51.907Z,100259.66
2023-03-26T07:47:26.290Z,100267.06
2023-03-26T07:52:52.169Z,100258.63
2023-03-26T07:58:30.094Z,100262.22
2023-03-26T08:04:25.237Z,100267.16
2023-03-26T08:10:02.772Z,100266.41
2023-03-26T08:15:30.735Z,100271.09
2023-03-26T08:20:41.492Z,100270.81
2023-03-26T08:25:54.813Z,100282.47
2023-03-26T08:31:02.919Z,100273.19
2023-03-26T08:36:06.681Z,100281.50
2023-03-26T08:41:59.736Z,100279.16
2023-03-26T08:47:38.055Z,100271.28
2023-03-26T08:53:13.161Z,100275.16
2023-03-26T08:58:41.792Z,100271.50
2023-03-26T09:03:58.374Z,100275.53
2023-03-26T09:09:29.604Z,100288.19
2023-03-26T09:15:00.466Z,100294.66
2023-03-26T09:20:16.558Z,100287.84
2023-03-26T09:25:43.797Z,100293.50
2023-03-26T09:30:59.702Z,100292.03
2023-03-26T09:36:21.656Z,100284.66
2023-03-26T09:41:34.181Z,100289.34
2023-03-26T09:46:46.892Z,100301.59
2023-03-26T09:52:04.827Z,100306.47
2023-03-26T09:57:18.036Z,100317.00
2023-03-26T10:02:45.849Z,100323.88
2023-03-26T10:08:11.136Z,100321.97
2023-03-26T10:13:25.273Z,100318.16
2023-03-26T10:24:10.677Z,100325.41
2023-03-26T10:29:35.327Z,100323.19
2023-03-26T10:34:51.771Z,100327.75
2023-03-26T10:40:20.883Z,100322.44
2023-03-26T10:45:37.212Z,100343.91
2023-03-26T10:50:53.376Z,100350.31
2023-03-26T10:55:59.083Z,100354.88
2023-03-26T11:01:06.318Z,100365.03
2023-03-26T11:06:14.927Z,100372.44
2023-03-26T11:11:22.258Z,100364.41
2023-03-26T11:16:32.726Z,100365.19
2023-03-26T11:21:41.586Z,100369.97
2023-03-26T11:26:52.896Z,100368.78
2023-03-26T11:32:02.861Z,100372.06
2023-03-26T11:37:08.194Z,100380.91
2023-03-26T11:42:14.342Z,100380.38
2023-03-26T11:47:23.684Z,100382.13
2023-03-26T11:52:27.531Z,100388.22
2023-03-26T11:57:33.107Z,100392.78
2023-03-26T12:02:41.578Z,100399.34
2023-03-26T12:07:52.340Z,100398.56
2023-03-26T12:12:56.845Z,100404.28
2023-03-26T12:18:19.961Z,100413.72
2023-03-26T12:23:37.570Z,100406.13
2023-03-26T12:28:45.660Z,100425.88
2023-03-26T12:34:07.510Z,100427.78
2023-03-26T12:40:09.044Z,100428.13
2023-03-26T12:44:59.083Z,100435.41
2023-03-26T12:50:09.629Z,100449.91
2023-03-26T12:55:20.662Z,100452.88
2023-03-26T13:00:30.172Z,100454.69
2023-03-26T13:05:41.398Z,100464.22
2023-03-26T13:10:50.547Z,100475.25
2023-03-26T13:15:54.003Z,100479.84
2023-03-26T13:21:07.400Z,100487.69
2023-03-26T13:26:32.986Z,100480.94
2023-03-26T13:31:40.656Z,100505.09
2023-03-26T13:36:53.687Z,100505.34
2023-03-26T13:42:07.188Z,100499.84
2023-03-26T13:47:12.795Z,100497.25
2023-03-26T13:52:22.139Z,100514.75
2023-03-26T13:57:29.399Z,100515.94
2023-03-26T14:02:35.052Z,100527.06
2023-03-26T14:07:44.071Z,100540.22
2023-03-26T14:12:51.433Z,100542.78
2023-03-26T14:18:01.975Z,100557.75
2023-03-26T14:23:20.604Z,100565.22
2023-03-26T14:28:53.736Z,100566.44
2023-03-26T14:34:07.164Z,100566.06
2023-03-26T14:39:21.568Z,100574.06
2023-03-26T14:44:47.720Z,100580.81
2023-03-26T14:50:31.582Z,100595.63
2023-03-26T14:55:52.534Z,100598.19
2023-03-26T15:01:25.101Z,100613.34
2023-03-26T15:06:49.802Z,100618.16
2023-03-26T15:12:12.463Z,100630.19
2023-03-26T15:17:58.646Z,100647.34
2023-03-26T15:23:47.385Z,100652.66
2023-03-26T15:29:13.857Z,100667.81
2023-03-26T15:34:42.311Z,100674.22
2023-03-26T15:39:59.528Z,100690.28
2023-03-26T15:45:19.272Z,100696.53
2023-03-26T15:50:39.018Z,100716.41
2023-03-26T15:55:45.930Z,100727.38
2023-03-26T16:00:56.544Z,100738.47
2023-03-26T16:06:19.980Z,100743.66
2023-03-26T16:11:44.867Z,100748.97
2023-03-26T16:16:56.303Z,100763.84
2023-03-26T16:22:02.108Z,100772.78
2023-03-26T16:27:33.536Z,100784.38
2023-03-26T16:32:42.338Z,100790.50
2023-03-26T16:37:50.542Z,100799.03
2023-03-26T16:42:56.333Z,100817.88
2023-03-26T16:48:10.663Z,100832.84
2023-03-26T16:53:30.569Z,100839.88
2023-03-26T16:58:37.854Z,100841.13
2023-03-26T17:03:46.799Z,100858.63
2023-03-26T17:08:57.464Z,100872.28
2023-03-26T17:14:08.817Z,100880.38
2023-03-26T17:19:24.547Z,100877.94
2023-03-26T17:24:34.498Z,100895.31
2023-03-26T17:30:03.931Z,100902.19
2023-03-26T17:35:11.516Z,100934.09
2023-03-26T17:40:49.571Z,100933.28
2023-03-26T17:46:03.982Z,100939.47
2023-03-26T17:51:30.359Z,100955.06
2023-03-26T17:56:33.395Z,100960.41
2023-03-26T18:01:38.190Z,100962.25
2023-03-26T18:06:58.042Z,100972.66
2023-03-26T18:12:24.410Z,100989.34
2023-03-26T18:17:27.301Z,101003.19
2023-03-26T18:22:31.591Z,101018.81
2023-03-26T18:27:38.513Z,101030.22
2023-03-26T18:32:50.858Z,101038.91
2023-03-26T18:37:59.020Z,101051.91
2023-03-26T18:43:01.918Z,101066.69
2023-03-26T18:48:07.268Z,101077.09
2023-03-26T18:53:17.149Z,101085.81
2023-03-26T18:58:26.253Z,101098.81
2023-03-26T19:03:32.235Z,101105.78
2023-03-26T19:08:38.841Z,101111.03
2023-03-26T19:13:42.442Z,101118.91
2023-03-26T19:18:45.607Z,101137.94
2023-03-26T19:23:50.504Z,101141.44
2023-03-26T19:28:56.062Z,101150.06
2023-03-26T19:34:00.510Z,101154.50
2023-03-26T19:39:12.273Z,101162.31
2023-03-26T19:44:20.507Z,101170.13
2023-03-26T19:49:29.344Z,101179.63
2023-03-26T19:55:00.215Z,101196.13
2023-03-26T20:00:05.154Z,101189.22
2023-03-26T20:05:15.289Z,101186.59
2023-03-26T20:10:19.949Z,101196.97
2023-03-26T20:15:25.294Z,101207.38
2023-03-26T20:20:28.575Z,101214.28
2023-03-26T20:25:34.540Z,101218.63
2023-03-26T20:30:38.120Z,101234.19
2023-03-26T20:35:41.322Z,101243.72
2023-03-26T20:40:46.206Z,101247.19
2023-03-26T20:45:49.761Z,101254.09
2023-03-26T20:50:52.956Z,101260.16
2023-03-26T20:55:57.112Z,101272.25
2023-03-26T21:01:01.502Z,101282.63
2023-03-26T21:06:06.358Z,101274.84
2023-03-26T21:11:27.281Z,101280.03
2023-03-26T21:16:31.423Z,101278.28
2023-03-26T21:21:44.142Z,101299.91
2023-03-26T21:26:51.572Z,101298.16
2023-03-26T21:31:56.077Z,101305.94
2023-03-26T21:36:59.449Z,101308.53
2023-03-26T21:42:04.185Z,101319.78
2023-03-26T21:47:09.991Z,101324.13
2023-03-26T21:52:15.283Z,101335.38
2023-03-26T21:57:30.670Z,101337.94
2023-03-26T22:02:37.964Z,101349.16
2023-03-26T22:07:50.845Z,101356.94
2023-03-26T22:12:55.098Z,101363.84
2023-03-26T22:18:01.395Z,101364.72
2023-03-26T22:23:05.707Z,101373.41
2023-03-26T22:28:10.096Z,101381.19
2023-03-26T22:33:14.375Z,101398.47
2023-03-26T22:38:17.872Z,101427.91
2023-03-26T22:43:22.057Z,101436.38
2023-03-26T22:48:25.004Z,101458.75
2023-03-26T22:53:27.846Z,101461.28
2023-03-26T22:58:32.117Z,101433.69
2023-03-26T23:03:35.835Z,101440.69
2023-03-26T23:08:39.448Z,101445.03
2023-03-26T23:13:44.378Z,101452.88
2023-03-26T23:18:47.314Z,101463.25
2023-03-26T23:23:51.608Z,101458.91
2023-03-26T23:28:55.839Z,101477.03
2023-03-26T23:33:59.227Z,101486.50
2023-03-26T23:39:02.244Z,101495.06
2023-03-26T23:44:06.966Z,101501.88
2023-03-26T23:49:10.248Z,101504.44
2023-03-26T23:54:13.062Z,101520.75
2023-03-26T23:59:17.165Z,101527.56
